Somerset, Massachusetts
Current Conditions -  °F | °C
As of 12:53 PM on Friday 21 Nov 2014 (Local Time) from KEWB Reporting Station
Clear Clear  
Wind Chill: 27°   Ceiling: Unl
Heat Index: 35°   Visibility: 10mi
Dew Point: 10°   Wind: 10mph
Humidity: 35%   Direction: 310°NW
Pressure: 30.13"   Gusts: 20mph
Location:  41.75°N, 71.14°W
Report Text: KEWB 211753Z 31009G17KT 280V360 10SM CLR 02/M12 A3013 RMK AO2 PK WND 27026/1731 SLP204 T00171122 10022 21028 53006
Loading
Personal Weather Stations






























Interactive Weather Map New forecast layout! Learn more

10-Day Weather Forecast

Advertisements
Track Severe Weather on mobile